sensor_id;sensor_type;location;lat;lon;timestamp;P1;durP1;ratioP1;P2;durP2;ratioP2
4839;SDS011;2434;48.486;7.964;2023-05-03T00:00:05;8.40;;;4.80;;
4839;SDS011;2434;48.486;7.964;2023-05-03T00:02:34;7.77;;;5.70;;
4839;SDS011;2434;48.486;7.964;2023-05-03T00:05:05;5.60;;;4.80;;
4839;SDS011;2434;48.486;7.964;2023-05-03T00:07:40;9.10;;;5.37;;
4839;SDS011;2434;48.486;7.964;2023-05-03T00:10:09;6.73;;;5.03;;
4839;SDS011;2434;48.486;7.964;2023-05-03T00:12:39;8.10;;;5.30;;
4839;SDS011;2434;48.486;7.964;2023-05-03T00:15:08;5.87;;;4.50;;
4839;SDS011;2434;48.486;7.964;2023-05-03T00:17:37;8.07;;;5.10;;
4839;SDS011;2434;48.486;7.964;2023-05-03T00:20:06;8.60;;;5.77;;
4839;SDS011;2434;48.486;7.964;2023-05-03T00:22:35;7.17;;;5.10;;
4839;SDS011;2434;48.486;7.964;2023-05-03T00:25:05;7.30;;;4.70;;
4839;SDS011;2434;48.486;7.964;2023-05-03T00:27:34;6.47;;;4.80;;
4839;SDS011;2434;48.486;7.964;2023-05-03T00:30:04;7.90;;;4.90;;
4839;SDS011;2434;48.486;7.964;2023-05-03T00:32:33;6.33;;;4.50;;
4839;SDS011;2434;48.486;7.964;2023-05-03T00:35:01;6.77;;;5.87;;
4839;SDS011;2434;48.486;7.964;2023-05-03T00:37:30;7.60;;;4.67;;
4839;SDS011;2434;48.486;7.964;2023-05-03T00:39:58;8.80;;;4.80;;
4839;SDS011;2434;48.486;7.964;2023-05-03T00:42:28;11.40;;;4.50;;
4839;SDS011;2434;48.486;7.964;2023-05-03T00:44:56;7.40;;;4.27;;
4839;SDS011;2434;48.486;7.964;2023-05-03T00:47:25;7.40;;;4.60;;
4839;SDS011;2434;48.486;7.964;2023-05-03T00:49:53;6.07;;;4.77;;
4839;SDS011;2434;48.486;7.964;2023-05-03T00:52:21;10.77;;;5.57;;
4839;SDS011;2434;48.486;7.964;2023-05-03T00:54:50;6.37;;;5.00;;
4839;SDS011;2434;48.486;7.964;2023-05-03T00:57:19;6.80;;;4.87;;
4839;SDS011;2434;48.486;7.964;2023-05-03T00:59:49;6.77;;;4.60;;
4839;SDS011;2434;48.486;7.964;2023-05-03T01:02:19;7.37;;;5.60;;
4839;SDS011;2434;48.486;7.964;2023-05-03T01:04:48;8.40;;;5.07;;
4839;SDS011;2434;48.486;7.964;2023-05-03T01:07:17;7.27;;;5.37;;
4839;SDS011;2434;48.486;7.964;2023-05-03T01:09:55;7.53;;;5.63;;
4839;SDS011;2434;48.486;7.964;2023-05-03T01:12:29;7.77;;;5.20;;
4839;SDS011;2434;48.486;7.964;2023-05-03T01:15:09;8.10;;;5.30;;
4839;SDS011;2434;48.486;7.964;2023-05-03T01:17:45;7.50;;;5.30;;
4839;SDS011;2434;48.486;7.964;2023-05-03T01:20:18;6.83;;;5.00;;
4839;SDS011;2434;48.486;7.964;2023-05-03T01:22:59;7.53;;;5.27;;
4839;SDS011;2434;48.486;7.964;2023-05-03T01:25:33;7.60;;;5.60;;
4839;SDS011;2434;48.486;7.964;2023-05-03T01:28:01;5.30;;;4.47;;
4839;SDS011;2434;48.486;7.964;2023-05-03T01:30:30;5.93;;;4.80;;
4839;SDS011;2434;48.486;7.964;2023-05-03T01:33:02;6.73;;;5.37;;
4839;SDS011;2434;48.486;7.964;2023-05-03T01:35:35;5.70;;;4.37;;
4839;SDS011;2434;48.486;7.964;2023-05-03T01:38:05;7.73;;;5.23;;
4839;SDS011;2434;48.486;7.964;2023-05-03T01:40:39;8.77;;;5.60;;
4839;SDS011;2434;48.486;7.964;2023-05-03T01:43:11;8.10;;;5.40;;
4839;SDS011;2434;48.486;7.964;2023-05-03T01:45:42;7.10;;;5.30;;
4839;SDS011;2434;48.486;7.964;2023-05-03T01:48:13;7.93;;;5.00;;
4839;SDS011;2434;48.486;7.964;2023-05-03T01:50:42;5.93;;;4.63;;
4839;SDS011;2434;48.486;7.964;2023-05-03T01:53:11;10.50;;;5.30;;
4839;SDS011;2434;48.486;7.964;2023-05-03T01:55:42;7.40;;;5.03;;
4839;SDS011;2434;48.486;7.964;2023-05-03T01:58:11;12.23;;;5.60;;
4839;SDS011;2434;48.486;7.964;2023-05-03T02:00:39;9.10;;;5.03;;
4839;SDS011;2434;48.486;7.964;2023-05-03T02:03:07;7.87;;;5.50;;
4839;SDS011;2434;48.486;7.964;2023-05-03T02:05:35;7.63;;;5.40;;
4839;SDS011;2434;48.486;7.964;2023-05-03T02:08:03;10.83;;;6.73;;
4839;SDS011;2434;48.486;7.964;2023-05-03T02:10:32;8.10;;;6.10;;
4839;SDS011;2434;48.486;7.964;2023-05-03T02:13:02;10.00;;;5.37;;
4839;SDS011;2434;48.486;7.964;2023-05-03T02:15:30;6.50;;;5.43;;
4839;SDS011;2434;48.486;7.964;2023-05-03T02:17:59;7.20;;;5.17;;
4839;SDS011;2434;48.486;7.964;2023-05-03T02:20:29;7.70;;;5.30;;
4839;SDS011;2434;48.486;7.964;2023-05-03T02:23:02;7.23;;;4.87;;
4839;SDS011;2434;48.486;7.964;2023-05-03T02:25:30;7.60;;;5.30;;
4839;SDS011;2434;48.486;7.964;2023-05-03T02:27:58;8.90;;;5.77;;
4839;SDS011;2434;48.486;7.964;2023-05-03T02:30:28;7.33;;;5.57;;
4839;SDS011;2434;48.486;7.964;2023-05-03T02:32:56;11.17;;;5.30;;
4839;SDS011;2434;48.486;7.964;2023-05-03T02:35:25;9.87;;;6.10;;
4839;SDS011;2434;48.486;7.964;2023-05-03T02:37:53;12.47;;;6.57;;
4839;SDS011;2434;48.486;7.964;2023-05-03T02:40:22;8.40;;;5.87;;
4839;SDS011;2434;48.486;7.964;2023-05-03T02:42:51;8.33;;;6.23;;
4839;SDS011;2434;48.486;7.964;2023-05-03T02:45:24;14.57;;;6.57;;
4839;SDS011;2434;48.486;7.964;2023-05-03T02:47:54;7.00;;;5.50;;
4839;SDS011;2434;48.486;7.964;2023-05-03T02:50:25;6.43;;;5.00;;
4839;SDS011;2434;48.486;7.964;2023-05-03T02:52:53;8.40;;;6.17;;
4839;SDS011;2434;48.486;7.964;2023-05-03T02:55:22;10.90;;;6.43;;
4839;SDS011;2434;48.486;7.964;2023-05-03T02:57:50;9.00;;;6.57;;
4839;SDS011;2434;48.486;7.964;2023-05-03T03:00:19;9.00;;;8.10;;
4839;SDS011;2434;48.486;7.964;2023-05-03T03:02:47;10.83;;;8.10;;
4839;SDS011;2434;48.486;7.964;2023-05-03T03:05:17;12.70;;;8.30;;
4839;SDS011;2434;48.486;7.964;2023-05-03T03:07:48;9.27;;;8.30;;
4839;SDS011;2434;48.486;7.964;2023-05-03T03:10:17;14.03;;;9.57;;
4839;SDS011;2434;48.486;7.964;2023-05-03T03:12:45;10.83;;;8.60;;
4839;SDS011;2434;48.486;7.964;2023-05-03T03:15:22;9.87;;;6.80;;
4839;SDS011;2434;48.486;7.964;2023-05-03T03:17:50;8.47;;;6.97;;
4839;SDS011;2434;48.486;7.964;2023-05-03T03:20:25;8.80;;;6.20;;
4839;SDS011;2434;48.486;7.964;2023-05-03T03:22:54;11.83;;;5.60;;
4839;SDS011;2434;48.486;7.964;2023-05-03T03:25:22;9.80;;;5.23;;
4839;SDS011;2434;48.486;7.964;2023-05-03T03:27:51;6.00;;;4.90;;
4839;SDS011;2434;48.486;7.964;2023-05-03T03:30:20;8.33;;;5.90;;
4839;SDS011;2434;48.486;7.964;2023-05-03T03:33:00;7.30;;;5.77;;
4839;SDS011;2434;48.486;7.964;2023-05-03T03:35:36;7.20;;;5.70;;
4839;SDS011;2434;48.486;7.964;2023-05-03T03:38:05;8.73;;;4.90;;
4839;SDS011;2434;48.486;7.964;2023-05-03T03:40:38;9.90;;;6.47;;
4839;SDS011;2434;48.486;7.964;2023-05-03T03:43:07;7.87;;;6.37;;
4839;SDS011;2434;48.486;7.964;2023-05-03T03:45:36;9.73;;;6.73;;
4839;SDS011;2434;48.486;7.964;2023-05-03T03:48:04;7.30;;;5.43;;
4839;SDS011;2434;48.486;7.964;2023-05-03T03:50:33;10.53;;;6.40;;
4839;SDS011;2434;48.486;7.964;2023-05-03T03:53:03;8.73;;;6.50;;
4839;SDS011;2434;48.486;7.964;2023-05-03T03:55:32;8.00;;;5.87;;
4839;SDS011;2434;48.486;7.964;2023-05-03T03:58:00;8.67;;;6.63;;
4839;SDS011;2434;48.486;7.964;2023-05-03T04:00:29;9.40;;;6.00;;
4839;SDS011;2434;48.486;7.964;2023-05-03T04:03:05;9.43;;;6.13;;
4839;SDS011;2434;48.486;7.964;2023-05-03T04:05:34;10.10;;;6.67;;
4839;SDS011;2434;48.486;7.964;2023-05-03T04:08:04;7.00;;;5.10;;
4839;SDS011;2434;48.486;7.964;2023-05-03T04:10:34;8.90;;;6.20;;
4839;SDS011;2434;48.486;7.964;2023-05-03T04:13:03;8.90;;;6.47;;
4839;SDS011;2434;48.486;7.964;2023-05-03T04:15:31;10.27;;;6.27;;
4839;SDS011;2434;48.486;7.964;2023-05-03T04:18:02;9.50;;;6.00;;
4839;SDS011;2434;48.486;7.964;2023-05-03T04:20:32;10.30;;;6.50;;
4839;SDS011;2434;48.486;7.964;2023-05-03T04:23:05;8.57;;;6.10;;
4839;SDS011;2434;48.486;7.964;2023-05-03T04:25:33;7.47;;;5.70;;
4839;SDS011;2434;48.486;7.964;2023-05-03T04:28:08;10.83;;;6.07;;
4839;SDS011;2434;48.486;7.964;2023-05-03T04:30:40;9.53;;;6.33;;
4839;SDS011;2434;48.486;7.964;2023-05-03T04:33:12;7.57;;;5.90;;
4839;SDS011;2434;48.486;7.964;2023-05-03T04:35:41;9.73;;;5.97;;
4839;SDS011;2434;48.486;7.964;2023-05-03T04:38:14;10.27;;;6.10;;
4839;SDS011;2434;48.486;7.964;2023-05-03T04:40:42;10.97;;;6.13;;
4839;SDS011;2434;48.486;7.964;2023-05-03T04:43:11;8.77;;;6.50;;
4839;SDS011;2434;48.486;7.964;2023-05-03T04:45:43;8.00;;;5.53;;
4839;SDS011;2434;48.486;7.964;2023-05-03T04:48:18;9.10;;;6.40;;
4839;SDS011;2434;48.486;7.964;2023-05-03T04:50:46;7.97;;;6.07;;
4839;SDS011;2434;48.486;7.964;2023-05-03T04:53:18;9.47;;;6.57;;
4839;SDS011;2434;48.486;7.964;2023-05-03T04:55:56;9.00;;;6.83;;
4839;SDS011;2434;48.486;7.964;2023-05-03T04:58:25;9.90;;;7.20;;
4839;SDS011;2434;48.486;7.964;2023-05-03T05:00:53;7.60;;;6.20;;
4839;SDS011;2434;48.486;7.964;2023-05-03T05:03:26;10.30;;;7.47;;
4839;SDS011;2434;48.486;7.964;2023-05-03T05:05:57;9.27;;;6.93;;
4839;SDS011;2434;48.486;7.964;2023-05-03T05:08:27;10.80;;;6.87;;
4839;SDS011;2434;48.486;7.964;2023-05-03T05:10:56;14.30;;;7.77;;
4839;SDS011;2434;48.486;7.964;2023-05-03T05:13:29;10.70;;;7.93;;
4839;SDS011;2434;48.486;7.964;2023-05-03T05:15:57;13.00;;;8.90;;
4839;SDS011;2434;48.486;7.964;2023-05-03T05:18:26;10.00;;;7.90;;
4839;SDS011;2434;48.486;7.964;2023-05-03T05:20:56;15.50;;;9.23;;
4839;SDS011;2434;48.486;7.964;2023-05-03T05:23:24;12.53;;;8.70;;
4839;SDS011;2434;48.486;7.964;2023-05-03T05:25:54;10.97;;;7.80;;
4839;SDS011;2434;48.486;7.964;2023-05-03T05:28:29;11.37;;;9.13;;
4839;SDS011;2434;48.486;7.964;2023-05-03T05:30:58;9.90;;;7.77;;
4839;SDS011;2434;48.486;7.964;2023-05-03T05:33:27;13.53;;;9.00;;
4839;SDS011;2434;48.486;7.964;2023-05-03T05:35:57;9.37;;;8.07;;
4839;SDS011;2434;48.486;7.964;2023-05-03T05:38:25;12.40;;;9.17;;
4839;SDS011;2434;48.486;7.964;2023-05-03T05:40:58;12.40;;;8.57;;
4839;SDS011;2434;48.486;7.964;2023-05-03T05:43:27;14.70;;;8.60;;
4839;SDS011;2434;48.486;7.964;2023-05-03T05:45:55;17.97;;;9.10;;
4839;SDS011;2434;48.486;7.964;2023-05-03T05:48:23;16.47;;;8.40;;
4839;SDS011;2434;48.486;7.964;2023-05-03T05:50:52;15.50;;;9.20;;
4839;SDS011;2434;48.486;7.964;2023-05-03T05:53:21;14.33;;;8.80;;
4839;SDS011;2434;48.486;7.964;2023-05-03T05:55:56;15.73;;;9.53;;
4839;SDS011;2434;48.486;7.964;2023-05-03T05:58:27;20.80;;;11.07;;
4839;SDS011;2434;48.486;7.964;2023-05-03T06:00:57;17.03;;;9.70;;
4839;SDS011;2434;48.486;7.964;2023-05-03T06:03:28;15.90;;;9.37;;
4839;SDS011;2434;48.486;7.964;2023-05-03T06:05:58;15.77;;;10.37;;
4839;SDS011;2434;48.486;7.964;2023-05-03T06:08:27;19.10;;;9.33;;
4839;SDS011;2434;48.486;7.964;2023-05-03T06:10:55;14.07;;;8.97;;
4839;SDS011;2434;48.486;7.964;2023-05-03T06:13:25;15.77;;;11.00;;
4839;SDS011;2434;48.486;7.964;2023-05-03T06:15:55;18.80;;;10.70;;
4839;SDS011;2434;48.486;7.964;2023-05-03T06:18:24;22.83;;;9.63;;
4839;SDS011;2434;48.486;7.964;2023-05-03T06:20:52;18.10;;;10.63;;
4839;SDS011;2434;48.486;7.964;2023-05-03T06:23:20;18.60;;;11.53;;
4839;SDS011;2434;48.486;7.964;2023-05-03T06:25:50;18.10;;;10.30;;
4839;SDS011;2434;48.486;7.964;2023-05-03T06:28:19;15.73;;;10.73;;
4839;SDS011;2434;48.486;7.964;2023-05-03T06:30:50;15.67;;;10.90;;
4839;SDS011;2434;48.486;7.964;2023-05-03T06:33:19;19.60;;;10.87;;
4839;SDS011;2434;48.486;7.964;2023-05-03T06:35:50;20.60;;;11.00;;
4839;SDS011;2434;48.486;7.964;2023-05-03T06:38:18;17.33;;;10.57;;
4839;SDS011;2434;48.486;7.964;2023-05-03T06:40:47;18.67;;;12.00;;
4839;SDS011;2434;48.486;7.964;2023-05-03T06:43:15;18.87;;;11.23;;
4839;SDS011;2434;48.486;7.964;2023-05-03T06:45:58;19.97;;;10.10;;
4839;SDS011;2434;48.486;7.964;2023-05-03T06:48:28;18.57;;;12.00;;
4839;SDS011;2434;48.486;7.964;2023-05-03T06:50:56;14.57;;;9.87;;
4839;SDS011;2434;48.486;7.964;2023-05-03T06:53:25;13.00;;;9.37;;
4839;SDS011;2434;48.486;7.964;2023-05-03T06:55:54;14.57;;;10.97;;
4839;SDS011;2434;48.486;7.964;2023-05-03T06:58:22;19.80;;;11.37;;
4839;SDS011;2434;48.486;7.964;2023-05-03T07:00:51;18.40;;;11.40;;
4839;SDS011;2434;48.486;7.964;2023-05-03T07:03:19;16.87;;;10.87;;
4839;SDS011;2434;48.486;7.964;2023-05-03T07:05:49;19.53;;;12.03;;
4839;SDS011;2434;48.486;7.964;2023-05-03T07:08:17;19.90;;;11.70;;
4839;SDS011;2434;48.486;7.964;2023-05-03T07:10:45;16.70;;;11.60;;
4839;SDS011;2434;48.486;7.964;2023-05-03T07:13:14;19.30;;;12.67;;
4839;SDS011;2434;48.486;7.964;2023-05-03T07:15:42;16.80;;;11.27;;
4839;SDS011;2434;48.486;7.964;2023-05-03T07:18:11;18.03;;;11.90;;
4839;SDS011;2434;48.486;7.964;2023-05-03T07:20:39;20.77;;;11.63;;
4839;SDS011;2434;48.486;7.964;2023-05-03T07:23:08;24.93;;;13.57;;
4839;SDS011;2434;48.486;7.964;2023-05-03T07:25:37;23.33;;;12.27;;
4839;SDS011;2434;48.486;7.964;2023-05-03T07:28:06;19.37;;;11.83;;
4839;SDS011;2434;48.486;7.964;2023-05-03T07:30:34;18.43;;;11.30;;
4839;SDS011;2434;48.486;7.964;2023-05-03T07:33:02;16.77;;;12.17;;
4839;SDS011;2434;48.486;7.964;2023-05-03T07:35:31;27.10;;;13.27;;
4839;SDS011;2434;48.486;7.964;2023-05-03T07:37:59;16.97;;;11.57;;
4839;SDS011;2434;48.486;7.964;2023-05-03T07:40:29;16.03;;;11.70;;
4839;SDS011;2434;48.486;7.964;2023-05-03T07:42:58;18.03;;;11.63;;
4839;SDS011;2434;48.486;7.964;2023-05-03T07:45:27;18.67;;;12.30;;
4839;SDS011;2434;48.486;7.964;2023-05-03T07:47:55;17.73;;;11.37;;
4839;SDS011;2434;48.486;7.964;2023-05-03T07:50:24;17.40;;;12.17;;
4839;SDS011;2434;48.486;7.964;2023-05-03T07:52:52;18.93;;;11.27;;
4839;SDS011;2434;48.486;7.964;2023-05-03T07:55:21;14.80;;;11.80;;
4839;SDS011;2434;48.486;7.964;2023-05-03T07:57:51;18.00;;;11.13;;
4839;SDS011;2434;48.486;7.964;2023-05-03T08:00:24;20.90;;;12.80;;
4839;SDS011;2434;48.486;7.964;2023-05-03T08:02:52;21.83;;;11.77;;
4839;SDS011;2434;48.486;7.964;2023-05-03T08:05:21;18.37;;;11.10;;
4839;SDS011;2434;48.486;7.964;2023-05-03T08:07:50;21.63;;;12.83;;
4839;SDS011;2434;48.486;7.964;2023-05-03T08:10:18;21.70;;;11.53;;
4839;SDS011;2434;48.486;7.964;2023-05-03T08:12:47;16.03;;;11.70;;
4839;SDS011;2434;48.486;7.964;2023-05-03T08:15:17;18.93;;;12.33;;
4839;SDS011;2434;48.486;7.964;2023-05-03T08:17:45;15.23;;;11.20;;
4839;SDS011;2434;48.486;7.964;2023-05-03T08:20:14;21.50;;;12.20;;
4839;SDS011;2434;48.486;7.964;2023-05-03T08:22:42;17.70;;;11.60;;
4839;SDS011;2434;48.486;7.964;2023-05-03T08:25:11;19.47;;;13.57;;
4839;SDS011;2434;48.486;7.964;2023-05-03T08:27:42;16.33;;;11.93;;
4839;SDS011;2434;48.486;7.964;2023-05-03T08:30:10;24.03;;;13.37;;
4839;SDS011;2434;48.486;7.964;2023-05-03T08:32:40;18.43;;;12.23;;
4839;SDS011;2434;48.486;7.964;2023-05-03T08:35:08;17.93;;;11.30;;
4839;SDS011;2434;48.486;7.964;2023-05-03T08:37:39;17.80;;;12.70;;
4839;SDS011;2434;48.486;7.964;2023-05-03T08:40:10;17.47;;;12.07;;
4839;SDS011;2434;48.486;7.964;2023-05-03T08:42:41;16.67;;;11.77;;
4839;SDS011;2434;48.486;7.964;2023-05-03T08:45:10;18.30;;;11.23;;
4839;SDS011;2434;48.486;7.964;2023-05-03T08:47:42;18.50;;;12.03;;
4839;SDS011;2434;48.486;7.964;2023-05-03T08:50:11;19.73;;;12.27;;
4839;SDS011;2434;48.486;7.964;2023-05-03T08:52:41;20.53;;;12.23;;
4839;SDS011;2434;48.486;7.964;2023-05-03T08:55:11;16.33;;;11.70;;
4839;SDS011;2434;48.486;7.964;2023-05-03T08:57:39;21.63;;;12.90;;
4839;SDS011;2434;48.486;7.964;2023-05-03T09:00:08;19.07;;;13.03;;
4839;SDS011;2434;48.486;7.964;2023-05-03T09:02:38;19.60;;;11.77;;
4839;SDS011;2434;48.486;7.964;2023-05-03T09:08:00;21.30;;;12.50;;
4839;SDS011;2434;48.486;7.964;2023-05-03T09:10:30;22.30;;;13.00;;
4839;SDS011;2434;48.486;7.964;2023-05-03T09:12:59;19.27;;;12.07;;
4839;SDS011;2434;48.486;7.964;2023-05-03T09:15:28;23.07;;;13.50;;
4839;SDS011;2434;48.486;7.964;2023-05-03T09:18:06;17.83;;;12.73;;
4839;SDS011;2434;48.486;7.964;2023-05-03T09:20:40;25.53;;;13.47;;
4839;SDS011;2434;48.486;7.964;2023-05-03T09:23:17;23.00;;;12.40;;
4839;SDS011;2434;48.486;7.964;2023-05-03T09:25:47;19.30;;;12.87;;
4839;SDS011;2434;48.486;7.964;2023-05-03T09:28:17;16.10;;;11.17;;
4839;SDS011;2434;48.486;7.964;2023-05-03T09:30:46;19.33;;;12.00;;
4839;SDS011;2434;48.486;7.964;2023-05-03T09:33:16;18.83;;;13.40;;
4839;SDS011;2434;48.486;7.964;2023-05-03T09:35:57;22.60;;;12.20;;
4839;SDS011;2434;48.486;7.964;2023-05-03T09:38:27;20.57;;;12.93;;
4839;SDS011;2434;48.486;7.964;2023-05-03T09:40:56;17.30;;;12.37;;
4839;SDS011;2434;48.486;7.964;2023-05-03T09:43:24;19.23;;;11.30;;
4839;SDS011;2434;48.486;7.964;2023-05-03T09:45:52;21.27;;;13.70;;
4839;SDS011;2434;48.486;7.964;2023-05-03T09:48:35;23.13;;;11.43;;
4839;SDS011;2434;48.486;7.964;2023-05-03T09:51:05;17.57;;;12.43;;
4839;SDS011;2434;48.486;7.964;2023-05-03T09:53:35;18.93;;;13.30;;
4839;SDS011;2434;48.486;7.964;2023-05-03T09:56:05;20.30;;;13.57;;
4839;SDS011;2434;48.486;7.964;2023-05-03T09:58:35;17.60;;;13.63;;
4839;SDS011;2434;48.486;7.964;2023-05-03T10:01:04;18.87;;;13.33;;
4839;SDS011;2434;48.486;7.964;2023-05-03T10:03:38;22.27;;;13.60;;
4839;SDS011;2434;48.486;7.964;2023-05-03T10:06:14;20.00;;;12.60;;
4839;SDS011;2434;48.486;7.964;2023-05-03T10:08:50;23.33;;;14.53;;
4839;SDS011;2434;48.486;7.964;2023-05-03T10:11:20;19.17;;;14.10;;
4839;SDS011;2434;48.486;7.964;2023-05-03T10:13:50;21.50;;;12.93;;
4839;SDS011;2434;48.486;7.964;2023-05-03T10:16:20;22.67;;;15.13;;
4839;SDS011;2434;48.486;7.964;2023-05-03T10:18:53;17.90;;;13.70;;
4839;SDS011;2434;48.486;7.964;2023-05-03T10:21:41;22.97;;;13.70;;
4839;SDS011;2434;48.486;7.964;2023-05-03T10:24:20;17.90;;;13.83;;
4839;SDS011;2434;48.486;7.964;2023-05-03T10:26:49;20.00;;;13.33;;
4839;SDS011;2434;48.486;7.964;2023-05-03T10:32:31;26.53;;;15.07;;
4839;SDS011;2434;48.486;7.964;2023-05-03T10:35:02;20.57;;;12.50;;
4839;SDS011;2434;48.486;7.964;2023-05-03T10:37:35;18.10;;;13.80;;
4839;SDS011;2434;48.486;7.964;2023-05-03T10:40:05;19.77;;;12.93;;
4839;SDS011;2434;48.486;7.964;2023-05-03T10:42:35;21.23;;;13.50;;
4839;SDS011;2434;48.486;7.964;2023-05-03T10:45:06;23.10;;;14.17;;
4839;SDS011;2434;48.486;7.964;2023-05-03T10:47:37;19.17;;;13.23;;
4839;SDS011;2434;48.486;7.964;2023-05-03T10:50:25;18.67;;;13.53;;
4839;SDS011;2434;48.486;7.964;2023-05-03T10:52:55;21.20;;;13.90;;
4839;SDS011;2434;48.486;7.964;2023-05-03T10:55:24;19.73;;;13.30;;
4839;SDS011;2434;48.486;7.964;2023-05-03T10:57:54;29.00;;;14.10;;
4839;SDS011;2434;48.486;7.964;2023-05-03T11:00:28;17.30;;;13.10;;
4839;SDS011;2434;48.486;7.964;2023-05-03T11:03:13;21.07;;;12.10;;
4839;SDS011;2434;48.486;7.964;2023-05-03T11:05:57;15.70;;;11.50;;
4839;SDS011;2434;48.486;7.964;2023-05-03T11:08:26;23.63;;;13.63;;
4839;SDS011;2434;48.486;7.964;2023-05-03T11:10:57;17.60;;;12.80;;
4839;SDS011;2434;48.486;7.964;2023-05-03T11:13:27;21.13;;;12.77;;
4839;SDS011;2434;48.486;7.964;2023-05-03T11:15:56;18.40;;;12.07;;
4839;SDS011;2434;48.486;7.964;2023-05-03T11:18:25;17.20;;;11.30;;
4839;SDS011;2434;48.486;7.964;2023-05-03T11:20:53;15.77;;;12.00;;
4839;SDS011;2434;48.486;7.964;2023-05-03T11:23:23;16.73;;;11.23;;
4839;SDS011;2434;48.486;7.964;2023-05-03T11:25:55;25.13;;;12.40;;
4839;SDS011;2434;48.486;7.964;2023-05-03T11:28:24;20.80;;;11.60;;
4839;SDS011;2434;48.486;7.964;2023-05-03T11:30:53;18.53;;;10.50;;
4839;SDS011;2434;48.486;7.964;2023-05-03T11:33:22;16.63;;;10.33;;
4839;SDS011;2434;48.486;7.964;2023-05-03T11:35:53;14.67;;;9.33;;
4839;SDS011;2434;48.486;7.964;2023-05-03T11:38:23;13.17;;;9.67;;
4839;SDS011;2434;48.486;7.964;2023-05-03T11:40:52;16.33;;;10.80;;
4839;SDS011;2434;48.486;7.964;2023-05-03T11:43:23;16.63;;;11.03;;
4839;SDS011;2434;48.486;7.964;2023-05-03T11:45:53;13.20;;;9.50;;
4839;SDS011;2434;48.486;7.964;2023-05-03T11:48:26;16.33;;;10.10;;
4839;SDS011;2434;48.486;7.964;2023-05-03T11:50:58;19.50;;;11.30;;
4839;SDS011;2434;48.486;7.964;2023-05-03T11:53:27;18.87;;;11.60;;
4839;SDS011;2434;48.486;7.964;2023-05-03T11:55:57;17.73;;;9.43;;
4839;SDS011;2434;48.486;7.964;2023-05-03T11:58:27;11.53;;;9.00;;
4839;SDS011;2434;48.486;7.964;2023-05-03T12:00:56;16.20;;;10.30;;
4839;SDS011;2434;48.486;7.964;2023-05-03T12:03:25;16.20;;;10.10;;
4839;SDS011;2434;48.486;7.964;2023-05-03T12:05:58;23.10;;;9.90;;
4839;SDS011;2434;48.486;7.964;2023-05-03T12:08:29;13.93;;;11.60;;
4839;SDS011;2434;48.486;7.964;2023-05-03T12:11:04;17.83;;;10.23;;
4839;SDS011;2434;48.486;7.964;2023-05-03T12:13:35;11.87;;;9.40;;
4839;SDS011;2434;48.486;7.964;2023-05-03T12:16:07;11.47;;;9.50;;
4839;SDS011;2434;48.486;7.964;2023-05-03T12:18:44;10.30;;;8.50;;
4839;SDS011;2434;48.486;7.964;2023-05-03T12:21:16;11.60;;;9.03;;
4839;SDS011;2434;48.486;7.964;2023-05-03T12:23:47;12.73;;;9.37;;
4839;SDS011;2434;48.486;7.964;2023-05-03T12:26:18;12.00;;;9.50;;
4839;SDS011;2434;48.486;7.964;2023-05-03T12:28:47;14.20;;;9.13;;
4839;SDS011;2434;48.486;7.964;2023-05-03T12:31:16;14.47;;;9.40;;
4839;SDS011;2434;48.486;7.964;2023-05-03T12:33:47;12.90;;;9.30;;
4839;SDS011;2434;48.486;7.964;2023-05-03T12:36:36;14.20;;;8.87;;
4839;SDS011;2434;48.486;7.964;2023-05-03T12:39:06;18.30;;;9.03;;
4839;SDS011;2434;48.486;7.964;2023-05-03T12:41:37;10.80;;;7.30;;
4839;SDS011;2434;48.486;7.964;2023-05-03T12:44:25;12.90;;;8.57;;
4839;SDS011;2434;48.486;7.964;2023-05-03T12:46:54;16.10;;;8.90;;
4839;SDS011;2434;48.486;7.964;2023-05-03T12:49:26;9.50;;;8.20;;
4839;SDS011;2434;48.486;7.964;2023-05-03T12:51:55;11.27;;;7.90;;
4839;SDS011;2434;48.486;7.964;2023-05-03T12:54:28;9.43;;;6.90;;
4839;SDS011;2434;48.486;7.964;2023-05-03T12:57:00;11.03;;;7.83;;
4839;SDS011;2434;48.486;7.964;2023-05-03T12:59:35;9.83;;;7.40;;
4839;SDS011;2434;48.486;7.964;2023-05-03T13:02:08;17.93;;;7.87;;
4839;SDS011;2434;48.486;7.964;2023-05-03T13:04:39;8.20;;;6.20;;
4839;SDS011;2434;48.486;7.964;2023-05-03T13:07:24;12.60;;;7.03;;
4839;SDS011;2434;48.486;7.964;2023-05-03T13:09:57;11.83;;;7.63;;
4839;SDS011;2434;48.486;7.964;2023-05-03T13:12:30;10.57;;;7.67;;
4839;SDS011;2434;48.486;7.964;2023-05-03T13:14:59;14.13;;;8.50;;
4839;SDS011;2434;48.486;7.964;2023-05-03T13:17:29;9.93;;;6.40;;
4839;SDS011;2434;48.486;7.964;2023-05-03T13:19:58;11.43;;;7.70;;
4839;SDS011;2434;48.486;7.964;2023-05-03T13:22:26;7.77;;;6.53;;
4839;SDS011;2434;48.486;7.964;2023-05-03T13:24:55;12.13;;;7.10;;
4839;SDS011;2434;48.486;7.964;2023-05-03T13:27:23;11.27;;;6.50;;
4839;SDS011;2434;48.486;7.964;2023-05-03T13:29:53;9.43;;;6.93;;
4839;SDS011;2434;48.486;7.964;2023-05-03T13:32:21;12.03;;;7.20;;
4839;SDS011;2434;48.486;7.964;2023-05-03T13:34:50;12.80;;;7.87;;
4839;SDS011;2434;48.486;7.964;2023-05-03T13:37:18;14.17;;;6.63;;
4839;SDS011;2434;48.486;7.964;2023-05-03T13:39:46;10.83;;;6.77;;
4839;SDS011;2434;48.486;7.964;2023-05-03T13:42:14;9.00;;;6.33;;
4839;SDS011;2434;48.486;7.964;2023-05-03T13:44:43;10.60;;;6.80;;
4839;SDS011;2434;48.486;7.964;2023-05-03T13:47:14;10.90;;;7.13;;
4839;SDS011;2434;48.486;7.964;2023-05-03T13:49:42;6.53;;;5.83;;
4839;SDS011;2434;48.486;7.964;2023-05-03T13:52:10;10.43;;;6.30;;
4839;SDS011;2434;48.486;7.964;2023-05-03T13:54:38;7.50;;;5.47;;
4839;SDS011;2434;48.486;7.964;2023-05-03T13:57:07;10.67;;;5.77;;
4839;SDS011;2434;48.486;7.964;2023-05-03T13:59:35;14.17;;;5.80;;
4839;SDS011;2434;48.486;7.964;2023-05-03T14:02:04;7.40;;;5.00;;
4839;SDS011;2434;48.486;7.964;2023-05-03T14:04:34;7.20;;;5.67;;
4839;SDS011;2434;48.486;7.964;2023-05-03T14:07:03;7.83;;;5.47;;
4839;SDS011;2434;48.486;7.964;2023-05-03T14:09:31;14.00;;;5.50;;
4839;SDS011;2434;48.486;7.964;2023-05-03T14:12:05;8.37;;;5.57;;
4839;SDS011;2434;48.486;7.964;2023-05-03T14:14:34;7.57;;;5.50;;
4839;SDS011;2434;48.486;7.964;2023-05-03T14:17:03;8.60;;;5.70;;
4839;SDS011;2434;48.486;7.964;2023-05-03T14:19:34;7.67;;;5.17;;
4839;SDS011;2434;48.486;7.964;2023-05-03T14:22:03;5.43;;;4.50;;
4839;SDS011;2434;48.486;7.964;2023-05-03T14:24:31;13.77;;;4.83;;
4839;SDS011;2434;48.486;7.964;2023-05-03T14:26:59;7.40;;;4.43;;
4839;SDS011;2434;48.486;7.964;2023-05-03T14:29:28;6.30;;;4.73;;
4839;SDS011;2434;48.486;7.964;2023-05-03T14:31:56;9.47;;;5.30;;
4839;SDS011;2434;48.486;7.964;2023-05-03T14:34:25;6.43;;;4.73;;
4839;SDS011;2434;48.486;7.964;2023-05-03T14:36:55;5.83;;;4.33;;
4839;SDS011;2434;48.486;7.964;2023-05-03T14:39:24;10.63;;;4.70;;
4839;SDS011;2434;48.486;7.964;2023-05-03T14:41:52;12.80;;;3.93;;
4839;SDS011;2434;48.486;7.964;2023-05-03T14:44:22;11.63;;;4.00;;
4839;SDS011;2434;48.486;7.964;2023-05-03T14:46:50;6.17;;;4.27;;
4839;SDS011;2434;48.486;7.964;2023-05-03T14:49:19;6.40;;;3.67;;
4839;SDS011;2434;48.486;7.964;2023-05-03T14:51:47;5.80;;;3.50;;
4839;SDS011;2434;48.486;7.964;2023-05-03T14:54:17;6.30;;;3.67;;
4839;SDS011;2434;48.486;7.964;2023-05-03T14:56:45;8.00;;;4.20;;
4839;SDS011;2434;48.486;7.964;2023-05-03T14:59:14;6.10;;;3.73;;
4839;SDS011;2434;48.486;7.964;2023-05-03T15:01:42;5.53;;;3.70;;
4839;SDS011;2434;48.486;7.964;2023-05-03T15:04:10;5.40;;;3.63;;
4839;SDS011;2434;48.486;7.964;2023-05-03T15:06:38;4.77;;;3.60;;
4839;SDS011;2434;48.486;7.964;2023-05-03T15:09:08;5.40;;;3.20;;
4839;SDS011;2434;48.486;7.964;2023-05-03T15:11:39;7.00;;;4.20;;
4839;SDS011;2434;48.486;7.964;2023-05-03T15:14:07;5.47;;;3.67;;
4839;SDS011;2434;48.486;7.964;2023-05-03T15:16:36;8.90;;;3.50;;
4839;SDS011;2434;48.486;7.964;2023-05-03T15:19:04;3.70;;;3.30;;
4839;SDS011;2434;48.486;7.964;2023-05-03T15:21:43;5.77;;;3.53;;
4839;SDS011;2434;48.486;7.964;2023-05-03T15:24:11;4.63;;;3.30;;
4839;SDS011;2434;48.486;7.964;2023-05-03T15:26:41;8.87;;;2.63;;